Time;durP1;ratioP1;P1;durP2;ratioP2;P2;SDS_P1;SDS_P2;PMS_P1;PMS_P2;Temp;Humidity;BMP_temperature;BMP_pressure;BME280_temperature;BME280_humidity;BME280_pressure;Samples;Min_cycle;Max_cycle;Signal;HPM_P1;HPM_P2
2023/07/31 00:00:44;;;;;;;7.65;2.70;;;21.70;59.90;;;;;;5053910;28;20035;-76
2023/07/31 00:03:10;;;;;;;6.10;3.22;;;21.70;60.00;;;;;;5053800;28;20021;-76
2023/07/31 00:05:36;;;;;;;7.22;2.78;;;21.70;59.90;;;;;;5053652;28;20021;-76
2023/07/31 00:08:01;;;;;;;6.10;3.10;;;21.70;60.00;;;;;;5053588;28;20040;-76
2023/07/31 00:10:27;;;;;;;7.03;2.92;;;21.70;59.90;;;;;;5053437;28;20467;-76
2023/07/31 00:12:52;;;;;;;9.13;3.10;;;21.70;60.00;;;;;;5053474;28;20104;-76
2023/07/31 00:15:18;;;;;;;7.05;2.80;;;21.70;60.00;;;;;;5053288;28;20145;-76
2023/07/31 00:17:44;;;;;;;9.82;3.03;;;21.70;60.10;;;;;;5053246;28;20487;-76
2023/07/31 00:20:10;;;;;;;6.68;3.10;;;21.70;60.00;;;;;;5053241;28;20104;-76
2023/07/31 00:22:36;;;;;;;8.20;3.00;;;21.70;60.10;;;;;;5053339;28;20025;-76
2023/07/31 00:25:01;;;;;;;6.93;3.13;;;21.70;60.10;;;;;;5053972;28;20088;-76
2023/07/31 00:27:27;;;;;;;8.85;2.88;;;21.70;60.10;;;;;;5053245;28;20025;-77
2023/07/31 00:29:53;;;;;;;7.20;3.38;;;21.70;81.80;;;;;;5053425;28;20372;-76
2023/07/31 00:32:19;;;;;;;5.32;2.35;;;21.70;60.20;;;;;;5053325;28;20021;-76
2023/07/31 00:34:45;;;;;;;6.75;2.85;;;21.70;60.20;;;;;;5053685;28;20021;-77
2023/07/31 00:37:11;;;;;;;6.93;3.25;;;21.70;60.20;;;;;;5052269;28;20492;-77
2023/07/31 00:39:38;;;;;;;7.82;3.25;;;21.70;61.00;;;;;;5052982;28;20037;-77
2023/07/31 00:42:04;;;;;;;7.88;2.92;;;21.70;60.40;;;;;;5052922;28;20024;-77
2023/07/31 00:44:30;;;;;;;7.68;3.05;;;21.70;60.40;;;;;;5052928;28;20037;-76
2023/07/31 00:46:59;;;;;;;9.07;3.38;;;21.70;61.10;;;;;;5051854;28;20013;-76
2023/07/31 00:49:26;;;;;;;6.38;2.92;;;21.70;60.40;;;;;;5051519;28;20493;-76
2023/07/31 00:51:52;;;;;;;9.55;3.15;;;21.70;60.50;;;;;;5053449;28;20018;-76
2023/07/31 00:54:19;;;;;;;8.60;3.35;;;21.60;60.40;;;;;;5052601;28;20032;-76
2023/07/31 00:56:48;;;;;;;9.35;3.60;;;21.60;60.40;;;;;;5052866;28;20382;-76
2023/07/31 00:59:14;;;;;;;7.90;3.00;;;21.60;61.20;;;;;;5052382;28;20043;-76
2023/07/31 01:01:41;;;;;;;9.18;4.32;;;21.70;60.60;;;;;;5052457;28;20021;-76
2023/07/31 01:04:07;;;;;;;10.40;3.70;;;21.60;60.40;;;;;;5052510;28;20139;-77
2023/07/31 01:06:40;;;;;;;8.63;3.33;;;21.60;60.50;;;;;;5052429;28;20025;-76
2023/07/31 01:09:45;;;;;;;9.88;3.28;;;21.60;60.70;;;;;;5052573;28;20025;-76
2023/07/31 01:12:16;;;;;;;6.45;3.42;;;21.60;60.40;;;;;;5052310;28;20116;-76
2023/07/31 01:15:13;;;;;;;9.32;3.53;;;21.60;60.70;;;;;;5052182;28;20033;-77
2023/07/31 01:17:39;;;;;;;6.38;3.15;;;21.60;60.50;;;;;;5052380;28;20029;-76
2023/07/31 01:20:18;;;;;;;9.52;3.47;;;21.60;60.60;;;;;;5052267;28;20044;-77
2023/07/31 01:22:44;;;;;;;10.27;3.50;;;21.60;60.80;;;;;;5052589;28;20036;-79
2023/07/31 01:25:13;;;;;;;8.48;3.90;;;21.60;60.70;;;;;;5052090;28;20033;-80
2023/07/31 01:27:56;;;;;;;8.57;3.25;;;21.60;61.50;;;;;;5052121;28;20483;-80
2023/07/31 01:30:27;;;;;;;9.93;3.28;;;21.60;60.80;;;;;;5052145;28;20029;-80
2023/07/31 01:32:56;;;;;;;7.25;3.03;;;21.60;60.70;;;;;;5052117;28;20480;-79
2023/07/31 01:35:22;;;;;;;9.57;3.38;;;21.60;60.80;;;;;;5052271;28;20025;-80
2023/07/31 01:37:48;;;;;;;8.60;3.85;;;21.60;60.80;;;;;;5051871;28;20029;-80
2023/07/31 01:40:14;;;;;;;6.80;3.30;;;21.60;60.80;;;;;;5052147;28;20028;-79
2023/07/31 01:42:40;;;;;;;7.97;3.67;;;21.60;60.90;;;;;;5052178;28;20105;-79
2023/07/31 01:45:07;;;;;;;7.15;3.63;;;21.60;60.80;;;;;;5051976;28;20032;-80
2023/07/31 01:47:33;;;;;;;5.18;3.22;;;21.60;60.90;;;;;;5051468;28;20021;-79
2023/07/31 01:49:59;;;;;;;7.30;3.20;;;21.60;60.80;;;;;;5052326;28;20380;-80
2023/07/31 01:52:25;;;;;;;7.70;3.45;;;21.60;60.80;;;;;;5052132;28;20095;-79
2023/07/31 01:54:52;;;;;;;6.25;2.78;;;21.60;60.90;;;;;;5051851;28;20543;-79
2023/07/31 01:57:18;;;;;;;6.25;3.25;;;21.60;60.90;;;;;;5051679;28;20147;-80
2023/07/31 01:59:44;;;;;;;6.93;3.78;;;21.60;60.90;;;;;;5051925;28;20112;-80
2023/07/31 02:02:10;;;;;;;8.18;3.15;;;21.50;60.90;;;;;;5051857;28;20100;-80
2023/07/31 02:04:38;;;;;;;8.75;3.50;;;21.50;60.90;;;;;;5051758;28;20037;-80
2023/07/31 02:07:04;;;;;;;5.70;3.03;;;21.50;61.00;;;;;;5051783;28;20017;-80
2023/07/31 02:09:29;;;;;;;6.38;3.20;;;21.50;60.90;;;;;;5051712;28;20021;-79
2023/07/31 02:11:55;;;;;;;7.95;3.15;;;21.50;61.10;;;;;;5050538;28;20025;-79
2023/07/31 02:14:20;;;;;;;6.57;2.85;;;21.50;61.00;;;;;;5051520;28;20045;-79
2023/07/31 02:16:46;;;;;;;7.72;3.70;;;21.50;61.00;;;;;;5052006;28;20107;-80
2023/07/31 02:19:12;;;;;;;8.43;3.88;;;21.50;61.00;;;;;;5051957;28;20037;-79
2023/07/31 02:21:37;;;;;;;8.68;3.88;;;21.50;61.00;;;;;;5051500;28;20082;-79
2023/07/31 02:24:03;;;;;;;8.15;3.47;;;21.50;61.00;;;;;;5051524;28;20112;-80
2023/07/31 02:26:29;;;;;;;7.07;3.55;;;21.50;61.00;;;;;;5051448;28;20098;-80
2023/07/31 02:28:54;;;;;;;8.68;3.72;;;21.50;61.10;;;;;;5051464;28;20045;-80
2023/07/31 02:31:20;;;;;;;8.20;3.95;;;21.50;61.10;;;;;;5051543;28;20024;-80
2023/07/31 02:33:45;;;;;;;6.43;3.35;;;21.50;61.20;;;;;;5051418;28;20108;-80
2023/07/31 02:36:11;;;;;;;7.95;3.58;;;21.50;61.20;;;;;;5051467;28;20116;-80
2023/07/31 02:38:37;;;;;;;7.95;3.47;;;21.50;61.10;;;;;;5051283;28;20189;-79
2023/07/31 02:41:02;;;;;;;6.57;3.50;;;21.50;61.10;;;;;;5051423;28;20045;-80
2023/07/31 02:43:28;;;;;;;9.02;4.07;;;21.50;61.00;;;;;;5051407;28;20116;-80
2023/07/31 02:45:53;;;;;;;8.00;3.45;;;22.60;61.70;;;;;;5051863;28;20045;-79
2023/07/31 02:48:19;;;;;;;8.80;3.60;;;21.40;61.00;;;;;;5051359;28;20032;-80
2023/07/31 02:50:47;;;;;;;9.75;3.70;;;21.50;61.10;;;;;;5051272;28;20033;-80
2023/07/31 02:53:12;;;;;;;5.43;3.30;;;21.40;61.10;;;;;;5051390;28;20021;-80
2023/07/31 02:55:38;;;;;;;6.40;3.40;;;21.40;61.00;;;;;;5051184;28;20041;-80
2023/07/31 02:58:04;;;;;;;5.78;2.97;;;21.50;61.10;;;;;;5051216;28;20044;-80
2023/07/31 03:00:30;;;;;;;6.75;3.30;;;21.40;61.10;;;;;;5053579;28;20021;-79
2023/07/31 03:02:55;;;;;;;6.80;3.28;;;21.40;61.10;;;;;;5054786;28;20096;-79
2023/07/31 03:05:21;;;;;;;7.03;3.00;;;21.40;61.10;;;;;;5055056;28;20076;-80
2023/07/31 03:07:46;;;;;;;7.53;3.50;;;21.40;61.00;;;;;;5054662;28;20067;-80
2023/07/31 03:10:13;;;;;;;8.93;3.80;;;21.40;61.00;;;;;;5053906;28;20476;-80
2023/07/31 03:12:39;;;;;;;6.22;3.33;;;21.40;61.10;;;;;;5054976;28;20075;-80
2023/07/31 03:15:06;;;;;;;8.32;3.65;;;21.40;61.10;;;;;;5055030;28;20052;-80
2023/07/31 03:17:32;;;;;;;8.73;3.95;;;21.40;61.10;;;;;;5054549;28;20503;-80
2023/07/31 03:19:58;;;;;;;8.15;3.55;;;21.40;61.20;;;;;;5054467;28;20040;-79
2023/07/31 03:22:24;;;;;;;7.25;3.08;;;21.40;61.20;;;;;;5054800;28;20226;-79
2023/07/31 03:24:50;;;;;;;7.07;3.28;;;21.40;61.20;;;;;;5054455;28;20044;-80
2023/07/31 03:27:15;;;;;;;6.40;3.47;;;21.40;61.20;;;;;;5054483;28;20336;-79
2023/07/31 03:29:41;;;;;;;7.25;3.72;;;21.40;61.10;;;;;;5054317;28;20032;-80
2023/07/31 03:32:07;;;;;;;9.15;3.85;;;21.40;61.10;;;;;;5054277;28;20028;-80
2023/07/31 03:34:33;;;;;;;7.53;3.50;;;21.40;61.20;;;;;;5054443;28;20035;-80
2023/07/31 03:36:59;;;;;;;7.18;3.67;;;21.30;61.20;;;;;;5054220;28;20023;-80
2023/07/31 03:39:25;;;;;;;7.07;3.45;;;21.40;61.30;;;;;;5054349;28;20045;-80
2023/07/31 03:41:50;;;;;;;9.23;3.53;;;21.30;61.20;;;;;;5054335;28;20391;-79
2023/07/31 03:44:16;;;;;;;5.75;3.50;;;20.40;60.70;;;;;;5054780;28;20044;-80
2023/07/31 03:46:41;;;;;;;4.97;2.90;;;21.30;61.20;;;;;;5052972;28;20025;-79
2023/07/31 03:49:07;;;;;;;5.53;3.42;;;21.30;61.20;;;;;;5054193;28;20029;-80
2023/07/31 03:51:33;;;;;;;9.20;3.38;;;21.30;61.20;;;;;;5054189;28;20026;-79
2023/07/31 03:53:58;;;;;;;7.80;3.35;;;21.30;61.20;;;;;;5054231;28;20390;-80
2023/07/31 03:56:24;;;;;;;7.57;3.17;;;21.30;61.10;;;;;;5054220;28;20032;-79
2023/07/31 03:58:49;;;;;;;5.90;3.33;;;21.30;61.40;;;;;;5053905;28;20495;-80
2023/07/31 04:07:13;;;;;;;4.93;2.97;;;21.30;61.20;;;;;;5001375;28;20105;-70
2023/07/31 04:09:39;;;;;;;7.13;3.28;;;21.30;61.20;;;;;;4994633;28;20456;-70
2023/07/31 04:12:04;;;;;;;6.50;3.20;;;21.30;61.20;;;;;;4993736;28;20030;-70
2023/07/31 04:14:30;;;;;;;7.13;3.33;;;21.30;61.30;;;;;;4994581;28;20480;-71
2023/07/31 04:16:55;;;;;;;4.50;2.80;;;21.30;61.30;;;;;;4994542;28;20073;-70
2023/07/31 04:19:21;;;;;;;6.93;2.80;;;21.30;61.40;;;;;;4994719;28;20036;-75
2023/07/31 04:21:47;;;;;;;4.90;3.13;;;21.30;61.40;;;;;;4994384;28;20106;-75
2023/07/31 04:24:13;;;;;;;5.85;3.15;;;21.30;61.30;;;;;;4994292;28;20058;-76
2023/07/31 04:26:39;;;;;;;7.63;3.58;;;21.30;61.20;;;;;;4994382;28;20429;-76
2023/07/31 04:29:05;;;;;;;6.18;3.35;;;21.30;61.40;;;;;;4994109;28;20026;-75
2023/07/31 04:31:31;;;;;;;5.72;3.15;;;21.30;61.40;;;;;;4993932;28;20029;-75
2023/07/31 04:33:57;;;;;;;5.47;3.20;;;21.30;61.40;;;;;;4993789;28;20033;-75
2023/07/31 04:36:23;;;;;;;4.90;3.00;;;21.20;61.40;;;;;;4994432;28;20026;-70
2023/07/31 04:38:48;;;;;;;6.72;2.97;;;21.20;61.40;;;;;;4993854;28;20034;-70
2023/07/31 04:41:14;;;;;;;5.35;3.38;;;21.30;61.40;;;;;;4993907;28;20041;-69
2023/07/31 04:43:40;;;;;;;5.75;2.67;;;21.20;61.30;;;;;;4993831;28;20027;-70
2023/07/31 04:46:06;;;;;;;5.47;2.95;;;21.20;61.30;;;;;;4993699;28;20077;-69
2023/07/31 04:48:32;;;;;;;6.57;2.72;;;21.20;61.40;;;;;;4993785;28;20026;-75
2023/07/31 04:50:58;;;;;;;6.75;2.95;;;21.20;61.40;;;;;;4993713;28;20105;-75
2023/07/31 04:53:24;;;;;;;6.30;3.08;;;21.20;61.40;;;;;;4993823;28;20400;-75
2023/07/31 04:55:50;;;;;;;5.30;2.65;;;21.20;61.30;;;;;;4993367;28;20033;-75
2023/07/31 04:58:16;;;;;;;5.90;2.60;;;21.20;61.40;;;;;;4993471;28;20039;-75
2023/07/31 05:00:42;;;;;;;4.93;2.92;;;21.20;61.40;;;;;;4993370;28;20133;-75
2023/07/31 05:03:10;;;;;;;4.65;3.25;;;21.20;61.40;;;;;;4993673;28;20050;-75
2023/07/31 05:05:36;;;;;;;4.88;2.55;;;21.20;61.40;;;;;;4993932;28;20022;-74
2023/07/31 05:08:02;;;;;;;4.65;2.70;;;21.20;61.40;;;;;;4993555;28;20037;-76
2023/07/31 05:10:29;;;;;;;4.63;2.50;;;21.20;61.40;;;;;;4992260;28;20027;-75
2023/07/31 05:12:55;;;;;;;4.38;2.47;;;21.20;61.40;;;;;;4993489;28;20054;-75
2023/07/31 05:15:21;;;;;;;5.82;2.45;;;21.20;61.50;;;;;;4993192;28;20022;-70
2023/07/31 05:17:46;;;;;;;4.05;2.13;;;21.20;61.60;;;;;;4993052;28;20034;-70
2023/07/31 05:20:12;;;;;;;4.28;2.65;;;21.20;61.40;;;;;;4993145;28;20497;-70
2023/07/31 05:22:38;;;;;;;4.20;2.78;;;21.20;61.40;;;;;;4992855;28;20392;-71
2023/07/31 05:25:04;;;;;;;7.50;2.67;;;21.80;61.80;;;;;;4993005;28;20028;-70
2023/07/31 05:27:30;;;;;;;5.93;2.63;;;21.10;61.50;;;;;;4992922;28;20440;-70
2023/07/31 05:29:55;;;;;;;3.83;2.40;;;21.20;61.50;;;;;;4992896;28;20030;-70
2023/07/31 05:32:21;;;;;;;4.60;2.05;;;21.20;61.60;;;;;;4993502;28;20057;-75
2023/07/31 05:34:47;;;;;;;4.28;2.50;;;21.20;61.70;;;;;;4991646;28;20030;-75
2023/07/31 05:37:14;;;;;;;4.82;2.47;;;21.10;61.50;;;;;;4992869;28;20022;-75
2023/07/31 05:39:40;;;;;;;4.40;1.98;;;21.10;61.50;;;;;;4992714;28;20484;-75
2023/07/31 05:42:06;;;;;;;3.95;2.17;;;21.10;61.50;;;;;;4993036;28;20445;-75
2023/07/31 05:44:32;;;;;;;4.40;2.40;;;21.10;61.70;;;;;;4992723;28;20026;-75
2023/07/31 05:46:58;;;;;;;3.05;1.95;;;21.10;61.60;;;;;;4992788;28;20026;-75
2023/07/31 05:49:23;;;;;;;5.00;2.42;;;21.10;61.60;;;;;;4992668;28;20022;-75
2023/07/31 05:51:49;;;;;;;3.35;2.35;;;21.10;61.60;;;;;;4992637;28;20028;-75
2023/07/31 05:54:14;;;;;;;3.13;2.00;;;21.10;61.80;;;;;;4992689;28;20038;-76
2023/07/31 05:56:40;;;;;;;4.28;2.22;;;21.10;61.70;;;;;;4992664;28;20508;-75
2023/07/31 05:59:06;;;;;;;3.60;2.13;;;21.10;61.80;;;;;;4992418;28;20038;-75
2023/07/31 06:01:31;;;;;;;4.03;2.08;;;21.10;82.60;;;;;;4993065;28;20429;-70
2023/07/31 06:03:57;;;;;;;4.15;2.17;;;21.10;61.90;;;;;;4992928;28;20050;-70
2023/07/31 06:06:23;;;;;;;3.70;2.10;;;21.10;61.90;;;;;;4992503;28;20380;-70
2023/07/31 06:08:49;;;;;;;5.43;1.80;;;21.10;61.80;;;;;;4992462;28;20471;-70
2023/07/31 06:11:15;;;;;;;5.57;2.25;;;21.10;61.80;;;;;;4992441;28;20037;-70
2023/07/31 06:13:44;;;;;;;3.70;2.10;;;21.10;61.80;;;;;;4992719;28;20041;-70
2023/07/31 06:16:10;;;;;;;2.17;1.90;;;21.10;61.70;;;;;;4992326;28;20106;-70
2023/07/31 06:18:36;;;;;;;2.45;1.52;;;21.10;61.80;;;;;;4992605;28;20041;-70
2023/07/31 06:21:03;;;;;;;4.47;2.47;;;21.10;61.80;;;;;;4992330;28;20019;-70
2023/07/31 06:23:29;;;;;;;4.47;2.10;;;21.10;62.00;;;;;;4992627;28;20365;-70
2023/07/31 06:25:54;;;;;;;3.38;1.80;;;21.10;61.90;;;;;;4992280;28;20053;-70
2023/07/31 06:28:20;;;;;;;2.58;2.08;;;21.10;61.90;;;;;;4992274;28;20027;-70
2023/07/31 06:30:46;;;;;;;3.83;1.95;;;21.10;62.00;;;;;;4992800;28;20027;-76
2023/07/31 06:33:12;;;;;;;3.53;1.98;;;21.10;62.00;;;;;;4992549;28;20085;-75
2023/07/31 06:35:38;;;;;;;3.72;2.03;;;21.10;62.00;;;;;;4994914;28;20023;-75
2023/07/31 06:38:04;;;;;;;2.92;1.70;;;21.10;61.90;;;;;;4996154;28;20113;-76
2023/07/31 06:40:30;;;;;;;2.75;1.95;;;21.10;62.10;;;;;;4996128;28;20496;-70
2023/07/31 06:42:56;;;;;;;3.30;1.90;;;21.00;62.00;;;;;;4996416;28;20030;-75
2023/07/31 06:45:22;;;;;;;2.85;1.75;;;21.10;62.20;;;;;;4995173;28;20146;-76
2023/07/31 06:47:48;;;;;;;2.67;2.00;;;21.10;62.30;;;;;;4996205;28;20029;-76
2023/07/31 06:50:14;;;;;;;2.78;1.70;;;21.10;62.10;;;;;;4996161;28;20030;-75
2023/07/31 06:52:40;;;;;;;2.75;1.60;;;21.10;62.20;;;;;;4995866;28;20473;-75
2023/07/31 06:55:24;;;;;;;3.30;1.98;;;21.00;62.20;;;;;;4996073;28;20389;-76
2023/07/31 06:57:52;;;;;;;3.53;1.50;;;21.10;62.30;;;;;;4996165;28;20096;-70
2023/07/31 07:00:20;;;;;;;2.38;1.60;;;21.00;62.10;;;;;;4995867;28;20037;-70
2023/07/31 07:02:48;;;;;;;2.30;1.88;;;21.10;62.40;;;;;;4995519;28;20160;-70
2023/07/31 07:05:16;;;;;;;2.65;1.58;;;21.00;62.10;;;;;;4995828;28;20160;-70
2023/07/31 07:07:43;;;;;;;3.53;1.75;;;21.00;62.30;;;;;;4996056;28;20029;-69
2023/07/31 07:10:09;;;;;;;2.10;1.60;;;21.00;62.30;;;;;;4995412;28;20041;-74
2023/07/31 07:12:35;;;;;;;2.78;1.48;;;21.00;62.50;;;;;;4995403;28;20567;-75
2023/07/31 07:15:02;;;;;;;2.35;1.60;;;21.00;62.50;;;;;;4995261;28;20066;-74
2023/07/31 07:17:31;;;;;;;3.47;1.30;;;21.00;62.50;;;;;;4995105;28;20022;-75
2023/07/31 07:19:57;;;;;;;2.05;1.30;;;21.10;62.40;;;;;;4995676;28;20038;-75
2023/07/31 07:22:23;;;;;;;2.10;1.45;;;21.00;62.50;;;;;;4995484;28;20019;-75
2023/07/31 07:24:50;;;;;;;2.22;1.45;;;21.00;62.60;;;;;;4995086;28;20500;-75
2023/07/31 07:27:16;;;;;;;1.55;1.30;;;21.00;62.60;;;;;;4995824;28;20393;-76
2023/07/31 07:29:42;;;;;;;2.38;1.35;;;21.00;62.60;;;;;;4993837;28;20030;-75
2023/07/31 07:32:08;;;;;;;2.40;1.35;;;21.10;62.70;;;;;;4994915;28;20023;-75
2023/07/31 07:34:35;;;;;;;1.88;1.30;;;21.10;62.60;;;;;;4994887;28;20037;-75
2023/07/31 07:37:01;;;;;;;1.33;1.10;;;21.10;62.70;;;;;;4995252;28;20085;-75
2023/07/31 07:39:27;;;;;;;2.13;1.10;;;21.10;62.80;;;;;;4994689;28;20503;-75
2023/07/31 07:41:54;;;;;;;1.30;1.10;;;21.00;62.60;;;;;;4995236;28;20053;-75
2023/07/31 07:44:20;;;;;;;1.42;0.95;;;21.10;62.80;;;;;;4994756;28;20061;-74
2023/07/31 07:46:46;;;;;;;1.70;1.13;;;21.10;62.90;;;;;;4995025;28;20109;-74
2023/07/31 07:49:12;;;;;;;2.30;1.20;;;21.10;62.90;;;;;;4994994;28;20097;-75
2023/07/31 07:51:38;;;;;;;1.77;1.10;;;21.00;63.60;;;;;;4994643;28;20068;-75
2023/07/31 07:54:04;;;;;;;2.72;1.17;;;21.00;62.90;;;;;;4994655;28;20034;-74
2023/07/31 07:56:30;;;;;;;2.10;1.25;;;21.20;83.40;;;;;;4995184;28;20029;-69
2023/07/31 07:58:56;;;;;;;2.38;1.17;;;21.00;63.00;;;;;;4994442;28;20034;-69
2023/07/31 08:01:22;;;;;;;3.03;1.00;;;20.90;83.50;;;;;;4994756;28;20026;-70
2023/07/31 08:03:48;;;;;;;1.50;0.88;;;21.00;63.10;;;;;;4994385;28;20073;-70
2023/07/31 08:06:14;;;;;;;1.95;1.10;;;21.00;63.80;;;;;;4994573;28;20269;-69
2023/07/31 08:08:40;;;;;;;1.23;0.93;;;21.00;63.10;;;;;;4994433;28;20054;-70
2023/07/31 08:11:06;;;;;;;1.17;0.93;;;21.10;63.20;;;;;;4994396;28;20028;-70
2023/07/31 08:13:31;;;;;;;1.80;1.00;;;21.00;63.10;;;;;;4994584;28;20022;-69
2023/07/31 08:15:57;;;;;;;1.85;0.80;;;21.10;63.20;;;;;;4994298;28;20501;-70
2023/07/31 08:18:23;;;;;;;1.00;0.75;;;21.10;63.30;;;;;;4994133;28;20038;-70
2023/07/31 08:20:48;;;;;;;1.75;1.02;;;21.10;63.30;;;;;;4994102;28;20034;-69
2023/07/31 08:23:14;;;;;;;1.55;0.90;;;21.40;63.50;;;;;;4994662;28;20037;-70
2023/07/31 08:25:40;;;;;;;1.38;0.95;;;21.10;63.40;;;;;;4994077;28;20384;-70
2023/07/31 08:28:06;;;;;;;1.35;0.68;;;21.00;63.40;;;;;;4994037;28;20041;-70
2023/07/31 08:30:33;;;;;;;0.82;0.82;;;21.00;63.40;;;;;;4993960;28;20109;-70
2023/07/31 08:32:59;;;;;;;1.10;0.93;;;21.00;63.50;;;;;;4994044;28;20030;-70
2023/07/31 08:35:25;;;;;;;1.30;0.90;;;21.00;63.50;;;;;;4993911;28;20026;-70
2023/07/31 08:37:51;;;;;;;1.23;1.00;;;21.00;64.10;;;;;;4994044;28;20026;-70
2023/07/31 08:40:17;;;;;;;1.05;0.80;;;21.00;63.50;;;;;;4994135;28;20365;-70
2023/07/31 08:42:47;;;;;;;1.30;1.05;;;21.00;63.50;;;;;;4993806;28;20485;-70
2023/07/31 08:45:19;;;;;;;1.33;0.85;;;21.00;63.50;;;;;;4993931;28;20033;-70
2023/07/31 08:47:50;;;;;;;1.20;0.90;;;21.00;63.50;;;;;;4993672;28;20031;-70
2023/07/31 08:50:16;;;;;;;;;;;21.00;63.60;;;;;;4994214;28;20428;-71
2023/07/31 08:52:42;;;;;;;1.30;0.88;;;21.00;63.50;;;;;;4994095;28;19905;-75
2023/07/31 08:55:09;;;;;;;1.00;0.90;;;21.00;63.80;;;;;;4993818;28;20388;-75
2023/07/31 08:57:36;;;;;;;1.10;0.73;;;21.00;63.70;;;;;;4993064;28;20081;-75
2023/07/31 09:00:05;;;;;;;1.35;0.98;;;21.00;63.80;;;;;;4993692;28;20034;-75
2023/07/31 09:03:02;;;;;;;0.77;0.70;;;21.00;63.80;;;;;;4993643;28;20413;-75
2023/07/31 09:05:30;;;;;;;1.80;0.80;;;21.00;63.70;;;;;;4993726;28;20186;-75
2023/07/31 09:07:57;;;;;;;1.20;0.80;;;21.00;63.80;;;;;;4993555;28;20023;-75
2023/07/31 09:10:23;;;;;;;1.90;0.70;;;21.00;63.80;;;;;;4993580;28;20037;-75
2023/07/31 09:12:51;;;;;;;1.60;0.80;;;21.10;63.90;;;;;;4993227;28;20022;-75
2023/07/31 09:15:18;;;;;;;1.80;0.90;;;21.10;63.90;;;;;;4993447;28;20026;-76
2023/07/31 09:17:44;;;;;;;1.17;0.80;;;21.00;63.80;;;;;;4993299;28;20105;-75
2023/07/31 09:20:18;;;;;;;1.30;0.85;;;21.00;63.90;;;;;;4993826;28;20116;-70
2023/07/31 09:22:45;;;;;;;2.70;1.05;;;21.10;64.10;;;;;;4993390;28;20062;-70
2023/07/31 09:25:16;;;;;;;0.65;0.65;;;21.00;64.00;;;;;;4993086;28;20125;-69
2023/07/31 09:28:04;;;;;;;0.88;0.80;;;21.10;64.00;;;;;;4992996;28;20547;-70
2023/07/31 09:30:30;;;;;;;1.92;0.93;;;21.10;64.00;;;;;;4993122;28;20029;-69
2023/07/31 09:33:05;;;;;;;1.63;1.05;;;21.10;64.20;;;;;;4993090;28;20015;-71
2023/07/31 09:35:33;;;;;;;1.30;0.98;;;21.10;64.20;;;;;;4993257;28;20461;-69
2023/07/31 09:38:05;;;;;;;1.40;0.80;;;21.10;64.20;;;;;;4992765;28;20132;-69
2023/07/31 09:40:36;;;;;;;2.60;0.93;;;21.10;64.20;;;;;;4992873;28;20034;-69
2023/07/31 09:43:03;;;;;;;1.15;0.93;;;21.10;64.30;;;;;;4992829;28;20109;-70
2023/07/31 09:45:30;;;;;;;1.05;0.80;;;21.10;64.30;;;;;;4992564;28;20045;-70
2023/07/31 09:47:56;;;;;;;1.08;0.77;;;21.10;64.40;;;;;;4992452;28;20022;-70
2023/07/31 09:50:24;;;;;;;1.75;0.90;;;21.10;64.40;;;;;;4993328;28;20029;-75
2023/07/31 09:52:51;;;;;;;1.15;1.00;;;21.10;64.50;;;;;;4993049;28;20027;-75
2023/07/31 09:55:18;;;;;;;1.17;0.85;;;21.10;64.50;;;;;;4992644;28;20030;-75
2023/07/31 09:57:49;;;;;;;1.25;0.65;;;21.10;64.50;;;;;;4992628;28;20022;-75
2023/07/31 10:00:18;;;;;;;;;;;21.10;64.50;;;;;;4993453;28;20388;-75
2023/07/31 10:02:47;;;;;;;1.23;0.90;;;21.10;64.40;;;;;;4992822;28;20336;-75
2023/07/31 10:05:16;;;;;;;1.50;1.00;;;21.20;64.60;;;;;;4992859;28;20436;-75
2023/07/31 10:07:54;;;;;;;2.03;0.90;;;21.20;64.90;;;;;;4992562;28;20026;-75
2023/07/31 10:10:22;;;;;;;1.08;0.70;;;21.20;64.60;;;;;;4994925;28;20026;-75
2023/07/31 10:12:52;;;;;;;2.22;1.00;;;21.20;64.60;;;;;;4996902;28;20050;-75
2023/07/31 10:15:19;;;;;;;1.63;0.82;;;21.20;64.60;;;;;;4996731;28;20416;-75
2023/07/31 10:17:49;;;;;;;1.25;1.00;;;21.20;64.60;;;;;;4996882;28;20026;-69
2023/07/31 10:20:17;;;;;;;1.98;0.95;;;21.20;64.70;;;;;;4996686;28;20034;-69
2023/07/31 10:22:45;;;;;;;2.05;0.77;;;21.20;64.60;;;;;;4996635;28;20027;-69
2023/07/31 10:25:12;;;;;;;1.65;0.85;;;21.20;64.60;;;;;;4996243;28;20169;-70
2023/07/31 10:27:39;;;;;;;1.45;0.88;;;21.20;64.80;;;;;;4996611;28;20392;-70
2023/07/31 10:30:17;;;;;;;1.55;0.93;;;21.20;64.70;;;;;;4996234;28;20109;-75
2023/07/31 10:32:45;;;;;;;1.35;1.00;;;21.20;64.80;;;;;;4996223;28;20022;-75
2023/07/31 10:35:12;;;;;;;0.75;0.75;;;21.20;64.80;;;;;;4995984;28;20487;-75
2023/07/31 10:37:39;;;;;;;1.95;0.85;;;21.20;64.90;;;;;;4995952;28;20037;-75
2023/07/31 10:40:09;;;;;;;1.15;0.93;;;21.20;64.90;;;;;;4996216;28;20076;-75
2023/07/31 10:42:47;;;;;;;2.20;1.00;;;21.20;65.00;;;;;;4995998;28;20183;-75
2023/07/31 10:45:14;;;;;;;1.00;0.93;;;21.30;65.10;;;;;;4996130;28;20038;-74
2023/07/31 10:47:45;;;;;;;1.50;0.90;;;21.20;65.00;;;;;;4996512;28;20081;-75
2023/07/31 10:50:34;;;;;;;1.33;0.80;;;21.20;65.10;;;;;;4995797;28;20045;-75
2023/07/31 10:53:01;;;;;;;1.10;0.65;;;21.20;65.00;;;;;;4995848;28;20077;-74
2023/07/31 10:55:38;;;;;;;1.23;0.80;;;21.30;65.00;;;;;;4995780;28;20077;-74
2023/07/31 10:58:09;;;;;;;1.55;0.80;;;21.20;65.00;;;;;;4996089;28;20387;-71
2023/07/31 11:00:41;;;;;;;0.70;0.57;;;21.20;65.00;;;;;;4996129;28;20033;-70
2023/07/31 11:03:12;;;;;;;0.90;0.80;;;21.30;65.00;;;;;;4995613;28;20045;-71
2023/07/31 11:05:43;;;;;;;1.05;0.80;;;21.30;65.10;;;;;;4995613;28;20492;-70
2023/07/31 11:08:20;;;;;;;1.05;0.90;;;21.30;65.10;;;;;;4995861;28;20073;-70
2023/07/31 11:10:48;;;;;;;0.55;0.55;;;21.30;65.00;;;;;;4995826;28;20090;-70
2023/07/31 11:13:14;;;;;;;1.08;0.82;;;21.30;65.10;;;;;;4995492;28;20269;-70
2023/07/31 11:15:41;;;;;;;0.88;0.88;;;21.30;65.00;;;;;;4996217;28;20383;-76
2023/07/31 11:18:08;;;;;;;1.50;0.80;;;21.30;65.00;;;;;;4995333;28;20026;-76
2023/07/31 11:20:35;;;;;;;0.98;0.90;;;21.20;65.00;;;;;;4995319;28;20100;-76
2023/07/31 11:23:03;;;;;;;0.88;0.80;;;21.30;65.00;;;;;;4995387;28;20087;-76
2023/07/31 11:25:33;;;;;;;1.25;0.93;;;21.30;65.10;;;;;;4995533;28;20030;-70
2023/07/31 11:28:07;;;;;;;1.03;0.77;;;21.30;65.10;;;;;;4995316;28;20027;-70
2023/07/31 11:30:33;;;;;;;1.02;0.80;;;21.30;65.10;;;;;;4995259;28;20030;-70
2023/07/31 11:33:03;;;;;;;1.00;0.70;;;21.30;65.10;;;;;;4995237;28;20015;-70
2023/07/31 11:35:41;;;;;;;0.95;0.82;;;21.30;65.10;;;;;;4995128;28;20022;-70
2023/07/31 11:38:08;;;;;;;1.05;0.70;;;21.30;65.10;;;;;;4995326;28;20388;-70
2023/07/31 11:40:44;;;;;;;0.80;0.80;;;21.30;65.10;;;;;;4995043;28;20022;-70
2023/07/31 11:43:16;;;;;;;0.70;0.47;;;21.30;65.10;;;;;;4995479;28;20508;-75
2023/07/31 11:45:44;;;;;;;1.10;0.75;;;21.30;65.10;;;;;;4995184;28;20342;-75
2023/07/31 11:48:18;;;;;;;0.90;0.73;;;21.30;65.10;;;;;;4994950;28;20109;-75
2023/07/31 11:50:46;;;;;;;1.52;0.60;;;21.30;65.10;;;;;;4994806;28;20488;-75
2023/07/31 11:53:13;;;;;;;0.80;0.52;;;21.30;65.10;;;;;;4994940;28;20088;-75
2023/07/31 11:55:39;;;;;;;0.95;0.90;;;21.30;65.10;;;;;;4995022;28;20084;-70
2023/07/31 11:58:05;;;;;;;1.75;0.77;;;21.30;65.10;;;;;;4994943;28;20384;-70
2023/07/31 12:00:32;;;;;;;1.20;0.77;;;21.30;65.10;;;;;;4994884;28;20034;-70
2023/07/31 12:02:58;;;;;;;2.45;0.70;;;21.30;65.10;;;;;;4994812;28;20046;-70
2023/07/31 12:05:24;;;;;;;0.60;0.60;;;21.30;65.10;;;;;;4994528;28;20038;-70
2023/07/31 12:07:52;;;;;;;0.40;0.40;;;21.30;65.00;;;;;;4994541;28;20033;-70
2023/07/31 12:10:30;;;;;;;0.93;0.60;;;21.30;65.10;;;;;;4994483;28;20048;-70
2023/07/31 12:13:10;;;;;;;0.88;0.70;;;21.30;65.10;;;;;;4994990;28;20049;-70
2023/07/31 12:15:43;;;;;;;0.85;0.60;;;21.30;65.10;;;;;;4994380;28;20028;-70
2023/07/31 12:18:19;;;;;;;0.93;0.70;;;21.30;65.20;;;;;;4994270;28;20058;-70
2023/07/31 12:20:53;;;;;;;1.63;0.60;;;21.30;65.20;;;;;;4994275;28;20121;-70
2023/07/31 12:23:28;;;;;;;0.57;0.43;;;21.30;65.10;;;;;;4994433;28;20153;-70
2023/07/31 12:26:12;;;;;;;0.82;0.50;;;21.30;65.30;;;;;;4994536;28;20227;-70
2023/07/31 12:28:43;;;;;;;0.73;0.60;;;21.40;65.40;;;;;;4994347;28;20022;-70
2023/07/31 12:31:28;;;;;;;1.23;0.75;;;21.30;65.30;;;;;;4994122;28;20027;-71
2023/07/31 12:33:55;;;;;;;0.85;0.50;;;21.30;65.40;;;;;;4993541;28;20022;-70
2023/07/31 12:36:24;;;;;;;0.80;0.63;;;21.30;65.40;;;;;;4993925;28;20389;-70
2023/07/31 12:38:51;;;;;;;0.90;0.70;;;21.30;65.40;;;;;;4993882;28;20038;-70
2023/07/31 12:41:16;;;;;;;0.63;0.60;;;21.30;65.50;;;;;;4994340;28;20014;-75
2023/07/31 12:43:44;;;;;;;1.05;0.57;;;21.30;65.50;;;;;;4994062;28;20022;-75
2023/07/31 12:46:11;;;;;;;0.52;0.50;;;21.30;66.20;;;;;;4994013;28;20049;-75
2023/07/31 12:48:38;;;;;;;1.67;0.52;;;21.30;65.50;;;;;;4993973;28;20326;-75
2023/07/31 12:51:04;;;;;;;1.63;0.80;;;21.40;65.50;;;;;;4993948;28;20022;-70
2023/07/31 12:53:31;;;;;;;1.92;0.90;;;21.30;65.50;;;;;;4994243;28;20053;-75
2023/07/31 12:55:57;;;;;;;0.60;0.60;;;21.40;65.60;;;;;;4993810;28;20392;-75